Jerez de la Frontera, Spain

2:26 AM CEST en Mayo 24, 2017 (GMT +0200)
Jerez | | Change Station

Alt 98 ft 36.75 °N, 6.07 °W | Updated 26 minutes ago

Clear
Despejado
66 ° F
Sensación térmica 66 ° F
N
4
Viento Variable Viento desde ENE

Hoy
Alta -- | Baja -- ° F
--% Posibilidad de precipitaciones
Ayer
Alta -- | Baja -- ° F
Precip. -- pul
Presión 29.98 pul
Visibilidad 6.2 Millas
Nubes
Punto de rocío 48 ° F
Humedad 52%
Precipitaciones 0.00 pul
Espesor de la nieve No disponible.
7:10 AM 9:32 PM
Creciente menguante, 5% visible
METAR LEJR 240000Z AUTO 06003KT 9999 NCD 19/09 Q1015
Presión 29.98 pul
Visibilidad 6.2 Millas
Nubes
Punto de rocío 48 ° F
Humedad 52%
Precipitaciones 0.00 pul
Espesor de la nieve No disponible.
7:10 AM 9:32 PM
Creciente menguante, 5% visible
METAR LEJR 240000Z AUTO 06003KT 9999 NCD 19/09 Q1015

Get Severe Weather Alerts

Thanks for signing up!

Be on the lookout for a verification email in your inbox.

You'll start receiving the daily forecast at 6 AM.

×

10-Day Weather Forecast

×

Almanac

Astronomía

May. 24, 2017 Salida Puesta
Hora real
Crepúsculo civil
Crepúsculo náutico
Crepúsculo astronómico
Luna
Horas de luz
Horas de luz
Tomorrow will be .
, % of the Moon is Illuminated

Extremos de hoy

Máximos del país Bajas del país

Community

WunderPhotos

Category 6

Welcome to Category 6. This is the collective home for Weather Underground's featured writeups by Dr. Jeff Masters (right), Bob Henson (left), Chris Burt, and other regular contributors.

Nearby

Calidad del aire

  Calidad del aire Índice AQ Contaminante
Not available.

Grosos de nieve

Estación Profundido Altura

Actividad de terremotos

Ciudad Distance Mag. Tiempo y dato
Magnitud mínima muestra es 2,5.

Temperaturas de aguas costeras

Lugar Temperatura

Stations

Estaciones meteorológicas cercanas

Ubicación de la estación Temp. Vientos helados Punto de rocío Humedad Viento Precip. Alt Actualizado Tipo